sensor_id;sensor_type;location;lat;lon;timestamp;P1;durP1;ratioP1;P2;durP2;ratioP2
62523;SDS011;53689;56.878;60.672;2022-08-19T00:01:37;6.53;;;4.35;;
62523;SDS011;53689;56.878;60.672;2022-08-19T00:04:06;5.90;;;3.88;;
62523;SDS011;53689;56.878;60.672;2022-08-19T00:06:37;7.45;;;3.75;;
62523;SDS011;53689;56.878;60.672;2022-08-19T00:09:07;5.45;;;4.10;;
62523;SDS011;53689;56.878;60.672;2022-08-19T00:11:36;6.25;;;3.90;;
62523;SDS011;53689;56.878;60.672;2022-08-19T00:14:05;7.13;;;3.83;;
62523;SDS011;53689;56.878;60.672;2022-08-19T00:16:33;6.68;;;4.05;;
62523;SDS011;53689;56.878;60.672;2022-08-19T00:19:01;6.88;;;3.90;;
62523;SDS011;53689;56.878;60.672;2022-08-19T00:21:29;7.55;;;4.00;;
62523;SDS011;53689;56.878;60.672;2022-08-19T00:23:58;6.20;;;3.70;;
62523;SDS011;53689;56.878;60.672;2022-08-19T00:26:25;7.60;;;4.27;;
62523;SDS011;53689;56.878;60.672;2022-08-19T00:28:53;6.75;;;3.95;;
62523;SDS011;53689;56.878;60.672;2022-08-19T00:31:21;5.47;;;4.13;;
62523;SDS011;53689;56.878;60.672;2022-08-19T00:33:49;5.90;;;4.20;;
62523;SDS011;53689;56.878;60.672;2022-08-19T00:36:16;7.40;;;4.30;;
62523;SDS011;53689;56.878;60.672;2022-08-19T00:38:44;7.53;;;4.60;;
62523;SDS011;53689;56.878;60.672;2022-08-19T00:41:14;6.55;;;4.32;;
62523;SDS011;53689;56.878;60.672;2022-08-19T00:43:43;6.65;;;4.20;;
62523;SDS011;53689;56.878;60.672;2022-08-19T00:46:23;7.90;;;4.68;;
62523;SDS011;53689;56.878;60.672;2022-08-19T00:48:50;7.32;;;4.88;;
62523;SDS011;53689;56.878;60.672;2022-08-19T00:51:18;8.93;;;4.93;;
62523;SDS011;53689;56.878;60.672;2022-08-19T00:53:45;7.38;;;4.68;;
62523;SDS011;53689;56.878;60.672;2022-08-19T00:56:14;7.05;;;4.32;;
62523;SDS011;53689;56.878;60.672;2022-08-19T00:58:41;8.90;;;4.87;;
62523;SDS011;53689;56.878;60.672;2022-08-19T01:01:09;7.50;;;4.20;;
62523;SDS011;53689;56.878;60.672;2022-08-19T01:03:37;7.90;;;4.88;;
62523;SDS011;53689;56.878;60.672;2022-08-19T01:06:24;7.55;;;4.60;;
62523;SDS011;53689;56.878;60.672;2022-08-19T01:08:51;8.18;;;4.55;;
62523;SDS011;53689;56.878;60.672;2022-08-19T01:11:21;8.30;;;4.70;;
62523;SDS011;53689;56.878;60.672;2022-08-19T01:13:49;7.40;;;5.03;;
62523;SDS011;53689;56.878;60.672;2022-08-19T01:16:19;7.28;;;5.03;;
62523;SDS011;53689;56.878;60.672;2022-08-19T01:18:49;7.95;;;4.80;;
62523;SDS011;53689;56.878;60.672;2022-08-19T01:21:18;7.07;;;5.05;;
62523;SDS011;53689;56.878;60.672;2022-08-19T01:23:53;7.10;;;4.78;;
62523;SDS011;53689;56.878;60.672;2022-08-19T01:26:21;9.23;;;5.00;;
62523;SDS011;53689;56.878;60.672;2022-08-19T01:28:54;6.93;;;4.70;;
62523;SDS011;53689;56.878;60.672;2022-08-19T01:31:27;7.63;;;5.15;;
62523;SDS011;53689;56.878;60.672;2022-08-19T01:33:58;8.38;;;5.28;;
62523;SDS011;53689;56.878;60.672;2022-08-19T01:36:27;8.25;;;5.43;;
62523;SDS011;53689;56.878;60.672;2022-08-19T01:38:58;7.45;;;5.10;;
62523;SDS011;53689;56.878;60.672;2022-08-19T01:41:26;9.63;;;5.68;;
62523;SDS011;53689;56.878;60.672;2022-08-19T01:43:54;12.85;;;6.05;;
62523;SDS011;53689;56.878;60.672;2022-08-19T01:46:41;8.05;;;5.43;;
62523;SDS011;53689;56.878;60.672;2022-08-19T01:49:10;8.90;;;5.32;;
62523;SDS011;53689;56.878;60.672;2022-08-19T01:51:37;9.38;;;5.40;;
62523;SDS011;53689;56.878;60.672;2022-08-19T01:54:07;7.72;;;5.40;;
62523;SDS011;53689;56.878;60.672;2022-08-19T01:56:36;7.68;;;5.57;;
62523;SDS011;53689;56.878;60.672;2022-08-19T01:59:08;9.43;;;5.53;;
62523;SDS011;53689;56.878;60.672;2022-08-19T02:01:39;8.38;;;5.50;;
62523;SDS011;53689;56.878;60.672;2022-08-19T02:04:07;8.88;;;5.35;;
62523;SDS011;53689;56.878;60.672;2022-08-19T02:06:34;8.52;;;5.43;;
62523;SDS011;53689;56.878;60.672;2022-08-19T02:09:03;9.35;;;5.68;;
62523;SDS011;53689;56.878;60.672;2022-08-19T02:11:34;8.85;;;5.35;;
62523;SDS011;53689;56.878;60.672;2022-08-19T02:14:04;11.02;;;5.57;;
62523;SDS011;53689;56.878;60.672;2022-08-19T02:16:34;10.30;;;5.28;;
62523;SDS011;53689;56.878;60.672;2022-08-19T02:19:02;11.65;;;4.50;;
62523;SDS011;53689;56.878;60.672;2022-08-19T02:21:31;10.73;;;4.85;;
62523;SDS011;53689;56.878;60.672;2022-08-19T02:23:59;8.63;;;5.47;;
62523;SDS011;53689;56.878;60.672;2022-08-19T02:26:27;8.73;;;6.25;;
62523;SDS011;53689;56.878;60.672;2022-08-19T02:28:56;10.27;;;5.97;;
62523;SDS011;53689;56.878;60.672;2022-08-19T02:31:25;7.57;;;4.90;;
62523;SDS011;53689;56.878;60.672;2022-08-19T02:33:54;9.02;;;5.20;;
62523;SDS011;53689;56.878;60.672;2022-08-19T02:36:23;8.30;;;4.43;;
62523;SDS011;53689;56.878;60.672;2022-08-19T02:38:52;7.80;;;4.38;;
62523;SDS011;53689;56.878;60.672;2022-08-19T02:41:22;6.28;;;4.00;;
62523;SDS011;53689;56.878;60.672;2022-08-19T02:43:53;8.02;;;4.63;;
62523;SDS011;53689;56.878;60.672;2022-08-19T02:46:42;8.27;;;4.57;;
62523;SDS011;53689;56.878;60.672;2022-08-19T02:49:11;7.90;;;4.03;;
62523;SDS011;53689;56.878;60.672;2022-08-19T02:51:40;6.03;;;3.90;;
62523;SDS011;53689;56.878;60.672;2022-08-19T02:54:10;8.40;;;4.20;;
62523;SDS011;53689;56.878;60.672;2022-08-19T02:56:39;6.80;;;4.43;;
62523;SDS011;53689;56.878;60.672;2022-08-19T02:59:07;8.43;;;4.13;;
62523;SDS011;53689;56.878;60.672;2022-08-19T03:01:37;8.07;;;4.30;;
62523;SDS011;53689;56.878;60.672;2022-08-19T03:04:09;7.85;;;4.72;;
62523;SDS011;53689;56.878;60.672;2022-08-19T03:06:37;11.45;;;4.93;;
62523;SDS011;53689;56.878;60.672;2022-08-19T03:09:07;11.98;;;4.57;;
62523;SDS011;53689;56.878;60.672;2022-08-19T03:11:34;8.48;;;4.05;;
62523;SDS011;53689;56.878;60.672;2022-08-19T03:14:03;7.70;;;4.35;;
62523;SDS011;53689;56.878;60.672;2022-08-19T03:19:00;10.88;;;4.63;;
62523;SDS011;53689;56.878;60.672;2022-08-19T03:21:30;13.52;;;4.68;;
62523;SDS011;53689;56.878;60.672;2022-08-19T03:24:00;7.35;;;4.30;;
62523;SDS011;53689;56.878;60.672;2022-08-19T03:28:56;8.95;;;4.40;;
62523;SDS011;53689;56.878;60.672;2022-08-19T03:31:25;14.88;;;4.82;;
62523;SDS011;53689;56.878;60.672;2022-08-19T03:34:14;11.52;;;4.28;;
62523;SDS011;53689;56.878;60.672;2022-08-19T03:36:45;9.20;;;3.95;;
62523;SDS011;53689;56.878;60.672;2022-08-19T03:39:13;10.38;;;4.38;;
62523;SDS011;53689;56.878;60.672;2022-08-19T03:41:41;13.63;;;4.50;;
62523;SDS011;53689;56.878;60.672;2022-08-19T03:44:14;8.95;;;4.05;;
62523;SDS011;53689;56.878;60.672;2022-08-19T03:46:44;8.50;;;3.88;;
62523;SDS011;53689;56.878;60.672;2022-08-19T03:49:13;9.95;;;4.05;;
62523;SDS011;53689;56.878;60.672;2022-08-19T03:51:41;11.82;;;4.68;;
62523;SDS011;53689;56.878;60.672;2022-08-19T03:54:12;10.23;;;4.10;;
62523;SDS011;53689;56.878;60.672;2022-08-19T03:56:42;12.02;;;4.28;;
62523;SDS011;53689;56.878;60.672;2022-08-19T03:59:12;11.63;;;4.32;;
62523;SDS011;53689;56.878;60.672;2022-08-19T04:01:41;8.65;;;3.97;;
62523;SDS011;53689;56.878;60.672;2022-08-19T04:04:08;8.60;;;4.60;;
62523;SDS011;53689;56.878;60.672;2022-08-19T04:06:37;11.02;;;4.35;;
62523;SDS011;53689;56.878;60.672;2022-08-19T04:09:07;11.05;;;5.47;;
62523;SDS011;53689;56.878;60.672;2022-08-19T04:11:38;9.68;;;4.25;;
62523;SDS011;53689;56.878;60.672;2022-08-19T04:14:11;8.52;;;4.47;;
62523;SDS011;53689;56.878;60.672;2022-08-19T04:16:40;10.63;;;5.38;;
62523;SDS011;53689;56.878;60.672;2022-08-19T04:19:07;10.15;;;4.90;;
62523;SDS011;53689;56.878;60.672;2022-08-19T04:21:35;8.63;;;4.88;;
62523;SDS011;53689;56.878;60.672;2022-08-19T04:24:02;10.00;;;5.07;;
62523;SDS011;53689;56.878;60.672;2022-08-19T04:26:32;6.97;;;4.57;;
62523;SDS011;53689;56.878;60.672;2022-08-19T04:29:04;8.75;;;5.72;;
62523;SDS011;53689;56.878;60.672;2022-08-19T04:31:38;9.55;;;4.65;;
62523;SDS011;53689;56.878;60.672;2022-08-19T04:34:06;9.73;;;4.95;;
62523;SDS011;53689;56.878;60.672;2022-08-19T04:36:36;10.30;;;5.55;;
62523;SDS011;53689;56.878;60.672;2022-08-19T04:41:33;12.75;;;5.43;;
62523;SDS011;53689;56.878;60.672;2022-08-19T04:44:03;11.95;;;5.30;;
62523;SDS011;53689;56.878;60.672;2022-08-19T04:46:30;28.65;;;5.97;;
62523;SDS011;53689;56.878;60.672;2022-08-19T04:49:06;8.60;;;4.80;;
62523;SDS011;53689;56.878;60.672;2022-08-19T04:51:40;14.35;;;5.85;;
62523;SDS011;53689;56.878;60.672;2022-08-19T04:54:08;10.18;;;4.88;;
62523;SDS011;53689;56.878;60.672;2022-08-19T04:56:36;9.60;;;4.78;;
62523;SDS011;53689;56.878;60.672;2022-08-19T04:59:05;8.20;;;4.43;;
62523;SDS011;53689;56.878;60.672;2022-08-19T05:01:32;9.48;;;4.70;;
62523;SDS011;53689;56.878;60.672;2022-08-19T05:04:00;10.35;;;4.50;;
62523;SDS011;53689;56.878;60.672;2022-08-19T05:06:29;8.70;;;4.53;;
62523;SDS011;53689;56.878;60.672;2022-08-19T05:08:58;8.52;;;5.03;;
62523;SDS011;53689;56.878;60.672;2022-08-19T05:11:27;12.13;;;6.72;;
62523;SDS011;53689;56.878;60.672;2022-08-19T05:13:56;11.38;;;6.18;;
62523;SDS011;53689;56.878;60.672;2022-08-19T05:16:25;13.10;;;5.13;;
62523;SDS011;53689;56.878;60.672;2022-08-19T05:18:54;10.30;;;5.15;;
62523;SDS011;53689;56.878;60.672;2022-08-19T05:21:21;9.00;;;5.80;;
62523;SDS011;53689;56.878;60.672;2022-08-19T05:23:49;12.88;;;5.90;;
62523;SDS011;53689;56.878;60.672;2022-08-19T05:26:17;11.00;;;6.32;;
62523;SDS011;53689;56.878;60.672;2022-08-19T05:28:44;9.60;;;5.43;;
62523;SDS011;53689;56.878;60.672;2022-08-19T05:31:32;10.48;;;6.53;;
62523;SDS011;53689;56.878;60.672;2022-08-19T05:34:00;10.45;;;5.90;;
62523;SDS011;53689;56.878;60.672;2022-08-19T05:36:34;12.30;;;7.05;;
62523;SDS011;53689;56.878;60.672;2022-08-19T05:39:03;10.15;;;6.30;;
62523;SDS011;53689;56.878;60.672;2022-08-19T05:41:30;11.30;;;7.53;;
62523;SDS011;53689;56.878;60.672;2022-08-19T05:44:00;10.85;;;6.30;;
62523;SDS011;53689;56.878;60.672;2022-08-19T05:46:29;8.95;;;5.70;;
62523;SDS011;53689;56.878;60.672;2022-08-19T05:48:58;11.05;;;5.90;;
62523;SDS011;53689;56.878;60.672;2022-08-19T05:51:25;9.17;;;5.83;;
62523;SDS011;53689;56.878;60.672;2022-08-19T05:53:55;9.93;;;6.18;;
62523;SDS011;53689;56.878;60.672;2022-08-19T06:07:48;12.38;;;6.75;;
62523;SDS011;53689;56.878;60.672;2022-08-19T06:10:15;10.20;;;6.05;;
62523;SDS011;53689;56.878;60.672;2022-08-19T06:12:43;13.32;;;7.03;;
62523;SDS011;53689;56.878;60.672;2022-08-19T06:15:11;11.13;;;6.10;;
62523;SDS011;53689;56.878;60.672;2022-08-19T06:17:40;11.18;;;6.53;;
62523;SDS011;53689;56.878;60.672;2022-08-19T06:20:09;15.80;;;6.65;;
62523;SDS011;53689;56.878;60.672;2022-08-19T06:22:39;12.07;;;5.90;;
62523;SDS011;53689;56.878;60.672;2022-08-19T06:25:09;13.05;;;5.90;;
62523;SDS011;53689;56.878;60.672;2022-08-19T06:27:37;11.20;;;6.22;;
62523;SDS011;53689;56.878;60.672;2022-08-19T06:30:24;9.52;;;6.30;;
62523;SDS011;53689;56.878;60.672;2022-08-19T06:32:52;12.38;;;6.38;;
62523;SDS011;53689;56.878;60.672;2022-08-19T06:35:20;14.20;;;6.45;;
62523;SDS011;53689;56.878;60.672;2022-08-19T06:37:47;10.70;;;6.43;;
62523;SDS011;53689;56.878;60.672;2022-08-19T06:40:16;11.00;;;6.78;;
62523;SDS011;53689;56.878;60.672;2022-08-19T06:42:44;12.88;;;6.20;;
62523;SDS011;53689;56.878;60.672;2022-08-19T06:45:21;10.82;;;6.13;;
62523;SDS011;53689;56.878;60.672;2022-08-19T06:47:50;9.05;;;6.00;;
62523;SDS011;53689;56.878;60.672;2022-08-19T06:50:18;11.30;;;6.22;;
62523;SDS011;53689;56.878;60.672;2022-08-19T06:52:45;10.45;;;6.40;;
62523;SDS011;53689;56.878;60.672;2022-08-19T06:55:15;10.93;;;6.15;;
62523;SDS011;53689;56.878;60.672;2022-08-19T06:57:44;13.70;;;6.65;;
62523;SDS011;53689;56.878;60.672;2022-08-19T07:00:12;16.00;;;6.35;;
62523;SDS011;53689;56.878;60.672;2022-08-19T07:02:40;18.70;;;7.65;;
62523;SDS011;53689;56.878;60.672;2022-08-19T07:05:13;14.90;;;7.70;;
62523;SDS011;53689;56.878;60.672;2022-08-19T07:07:42;14.18;;;6.57;;
62523;SDS011;53689;56.878;60.672;2022-08-19T07:10:13;11.27;;;6.88;;
62523;SDS011;53689;56.878;60.672;2022-08-19T07:12:42;11.63;;;6.55;;
62523;SDS011;53689;56.878;60.672;2022-08-19T07:15:10;12.65;;;6.05;;
62523;SDS011;53689;56.878;60.672;2022-08-19T07:17:38;14.48;;;6.80;;
62523;SDS011;53689;56.878;60.672;2022-08-19T07:20:08;12.00;;;6.85;;
62523;SDS011;53689;56.878;60.672;2022-08-19T07:22:36;12.63;;;7.03;;
62523;SDS011;53689;56.878;60.672;2022-08-19T07:25:05;10.80;;;6.88;;
62523;SDS011;53689;56.878;60.672;2022-08-19T07:27:34;12.27;;;6.13;;
62523;SDS011;53689;56.878;60.672;2022-08-19T07:30:03;12.65;;;6.25;;
62523;SDS011;53689;56.878;60.672;2022-08-19T07:32:31;11.30;;;6.45;;
62523;SDS011;53689;56.878;60.672;2022-08-19T07:34:59;11.18;;;6.32;;
62523;SDS011;53689;56.878;60.672;2022-08-19T07:37:26;13.18;;;6.60;;
62523;SDS011;53689;56.878;60.672;2022-08-19T07:39:59;12.85;;;5.95;;
62523;SDS011;53689;56.878;60.672;2022-08-19T07:42:26;12.10;;;6.07;;
62523;SDS011;53689;56.878;60.672;2022-08-19T07:44:54;10.95;;;6.38;;
62523;SDS011;53689;56.878;60.672;2022-08-19T07:47:23;10.73;;;6.32;;
62523;SDS011;53689;56.878;60.672;2022-08-19T07:50:10;13.50;;;7.60;;
62523;SDS011;53689;56.878;60.672;2022-08-19T07:52:38;16.92;;;7.43;;
62523;SDS011;53689;56.878;60.672;2022-08-19T07:55:06;15.48;;;9.65;;
62523;SDS011;53689;56.878;60.672;2022-08-19T07:57:55;23.55;;;14.63;;
62523;SDS011;53689;56.878;60.672;2022-08-19T08:00:23;16.45;;;11.23;;
62523;SDS011;53689;56.878;60.672;2022-08-19T08:02:52;13.60;;;8.93;;
62523;SDS011;53689;56.878;60.672;2022-08-19T08:05:21;17.15;;;8.45;;
62523;SDS011;53689;56.878;60.672;2022-08-19T08:07:49;20.88;;;10.27;;
62523;SDS011;53689;56.878;60.672;2022-08-19T08:10:16;11.98;;;8.30;;
62523;SDS011;53689;56.878;60.672;2022-08-19T08:12:49;17.00;;;9.70;;
62523;SDS011;53689;56.878;60.672;2022-08-19T08:15:36;22.02;;;11.20;;
62523;SDS011;53689;56.878;60.672;2022-08-19T08:18:10;16.73;;;7.25;;
62523;SDS011;53689;56.878;60.672;2022-08-19T08:20:38;27.05;;;8.57;;
62523;SDS011;53689;56.878;60.672;2022-08-19T08:23:05;51.40;;;44.67;;
62523;SDS011;53689;56.878;60.672;2022-08-19T08:25:33;30.17;;;24.73;;
62523;SDS011;53689;56.878;60.672;2022-08-19T08:28:02;22.60;;;17.98;;
62523;SDS011;53689;56.878;60.672;2022-08-19T08:30:31;16.13;;;12.70;;
62523;SDS011;53689;56.878;60.672;2022-08-19T08:32:58;23.58;;;16.45;;
62523;SDS011;53689;56.878;60.672;2022-08-19T08:35:29;38.40;;;16.23;;
62523;SDS011;53689;56.878;60.672;2022-08-19T08:37:57;33.20;;;14.77;;
62523;SDS011;53689;56.878;60.672;2022-08-19T08:40:26;20.67;;;10.23;;
62523;SDS011;53689;56.878;60.672;2022-08-19T08:42:57;30.38;;;11.32;;
62523;SDS011;53689;56.878;60.672;2022-08-19T08:45:36;67.38;;;15.10;;
62523;SDS011;53689;56.878;60.672;2022-08-19T08:48:20;95.82;;;17.90;;
62523;SDS011;53689;56.878;60.672;2022-08-19T08:50:53;91.40;;;16.15;;
62523;SDS011;53689;56.878;60.672;2022-08-19T08:53:23;76.50;;;15.23;;
62523;SDS011;53689;56.878;60.672;2022-08-19T08:56:00;139.00;;;20.95;;
62523;SDS011;53689;56.878;60.672;2022-08-19T08:58:31;71.00;;;13.48;;
62523;SDS011;53689;56.878;60.672;2022-08-19T09:01:08;46.67;;;10.68;;
62523;SDS011;53689;56.878;60.672;2022-08-19T09:03:37;47.78;;;10.68;;
62523;SDS011;53689;56.878;60.672;2022-08-19T09:06:12;17.23;;;7.25;;
62523;SDS011;53689;56.878;60.672;2022-08-19T09:08:48;45.70;;;10.73;;
62523;SDS011;53689;56.878;60.672;2022-08-19T09:11:25;10.48;;;6.47;;
62523;SDS011;53689;56.878;60.672;2022-08-19T09:14:11;24.10;;;7.80;;
62523;SDS011;53689;56.878;60.672;2022-08-19T09:17:05;25.67;;;7.65;;
62523;SDS011;53689;56.878;60.672;2022-08-19T09:19:32;13.65;;;5.60;;
62523;SDS011;53689;56.878;60.672;2022-08-19T09:22:02;24.70;;;7.70;;
62523;SDS011;53689;56.878;60.672;2022-08-19T09:24:29;20.10;;;8.40;;
62523;SDS011;53689;56.878;60.672;2022-08-19T09:26:57;15.80;;;6.32;;
62523;SDS011;53689;56.878;60.672;2022-08-19T09:29:24;13.52;;;6.50;;
62523;SDS011;53689;56.878;60.672;2022-08-19T09:31:52;12.48;;;6.10;;
62523;SDS011;53689;56.878;60.672;2022-08-19T09:34:19;11.88;;;5.95;;
62523;SDS011;53689;56.878;60.672;2022-08-19T09:36:48;16.75;;;6.80;;
62523;SDS011;53689;56.878;60.672;2022-08-19T09:39:18;22.35;;;7.60;;
62523;SDS011;53689;56.878;60.672;2022-08-19T09:41:46;16.17;;;7.13;;
62523;SDS011;53689;56.878;60.672;2022-08-19T09:44:14;23.88;;;8.00;;
62523;SDS011;53689;56.878;60.672;2022-08-19T09:49:11;21.88;;;8.13;;
62523;SDS011;53689;56.878;60.672;2022-08-19T10:02:33;24.33;;;8.85;;
62523;SDS011;53689;56.878;60.672;2022-08-19T10:05:01;20.50;;;8.35;;
62523;SDS011;53689;56.878;60.672;2022-08-19T10:07:29;16.75;;;7.50;;
62523;SDS011;53689;56.878;60.672;2022-08-19T10:10:02;22.08;;;8.93;;
62523;SDS011;53689;56.878;60.672;2022-08-19T10:12:30;23.42;;;7.40;;
62523;SDS011;53689;56.878;60.672;2022-08-19T10:14:58;21.20;;;8.52;;
62523;SDS011;53689;56.878;60.672;2022-08-19T10:17:25;25.13;;;9.13;;
62523;SDS011;53689;56.878;60.672;2022-08-19T10:20:00;30.13;;;9.75;;
62523;SDS011;53689;56.878;60.672;2022-08-19T10:22:28;34.35;;;8.13;;
62523;SDS011;53689;56.878;60.672;2022-08-19T10:24:56;21.90;;;6.70;;
62523;SDS011;53689;56.878;60.672;2022-08-19T10:27:24;18.65;;;6.25;;
62523;SDS011;53689;56.878;60.672;2022-08-19T10:29:52;16.10;;;6.78;;
62523;SDS011;53689;56.878;60.672;2022-08-19T10:32:20;16.25;;;6.82;;
62523;SDS011;53689;56.878;60.672;2022-08-19T10:35:01;20.75;;;6.65;;
62523;SDS011;53689;56.878;60.672;2022-08-19T10:37:31;30.08;;;8.60;;
62523;SDS011;53689;56.878;60.672;2022-08-19T10:40:00;22.63;;;7.65;;
62523;SDS011;53689;56.878;60.672;2022-08-19T10:42:28;20.80;;;8.13;;
62523;SDS011;53689;56.878;60.672;2022-08-19T10:44:56;24.92;;;7.40;;
62523;SDS011;53689;56.878;60.672;2022-08-19T10:47:24;17.48;;;6.72;;
62523;SDS011;53689;56.878;60.672;2022-08-19T10:49:57;25.02;;;7.07;;
62523;SDS011;53689;56.878;60.672;2022-08-19T10:52:26;18.90;;;6.70;;
62523;SDS011;53689;56.878;60.672;2022-08-19T10:54:58;22.05;;;6.55;;
62523;SDS011;53689;56.878;60.672;2022-08-19T10:57:31;17.40;;;5.32;;
62523;SDS011;53689;56.878;60.672;2022-08-19T11:00:18;35.40;;;23.45;;
62523;SDS011;53689;56.878;60.672;2022-08-19T11:02:46;22.70;;;12.18;;
62523;SDS011;53689;56.878;60.672;2022-08-19T11:05:14;17.80;;;8.50;;
62523;SDS011;53689;56.878;60.672;2022-08-19T11:07:43;20.30;;;8.05;;
62523;SDS011;53689;56.878;60.672;2022-08-19T11:10:13;17.10;;;7.30;;
62523;SDS011;53689;56.878;60.672;2022-08-19T11:25:07;14.00;;;6.00;;
62523;SDS011;53689;56.878;60.672;2022-08-19T11:27:37;16.42;;;7.90;;
62523;SDS011;53689;56.878;60.672;2022-08-19T11:32:38;13.93;;;7.70;;
62523;SDS011;53689;56.878;60.672;2022-08-19T11:35:11;20.27;;;7.97;;
62523;SDS011;53689;56.878;60.672;2022-08-19T11:37:38;14.48;;;6.40;;
62523;SDS011;53689;56.878;60.672;2022-08-19T11:40:08;11.98;;;6.15;;
62523;SDS011;53689;56.878;60.672;2022-08-19T11:42:36;11.85;;;5.88;;
62523;SDS011;53689;56.878;60.672;2022-08-19T11:45:04;15.20;;;6.22;;
62523;SDS011;53689;56.878;60.672;2022-08-19T11:47:32;11.57;;;5.93;;
62523;SDS011;53689;56.878;60.672;2022-08-19T11:50:00;12.57;;;5.30;;
62523;SDS011;53689;56.878;60.672;2022-08-19T11:52:27;9.90;;;5.35;;
62523;SDS011;53689;56.878;60.672;2022-08-19T11:54:54;12.32;;;4.90;;
62523;SDS011;53689;56.878;60.672;2022-08-19T11:57:23;12.15;;;5.60;;
62523;SDS011;53689;56.878;60.672;2022-08-19T11:59:52;12.03;;;6.33;;
62523;SDS011;53689;56.878;60.672;2022-08-19T12:02:20;11.38;;;5.40;;
62523;SDS011;53689;56.878;60.672;2022-08-19T12:04:47;7.85;;;4.82;;
62523;SDS011;53689;56.878;60.672;2022-08-19T12:07:15;13.27;;;5.63;;
62523;SDS011;53689;56.878;60.672;2022-08-19T12:09:42;12.25;;;5.57;;
62523;SDS011;53689;56.878;60.672;2022-08-19T12:12:11;10.80;;;4.93;;
62523;SDS011;53689;56.878;60.672;2022-08-19T12:14:40;8.48;;;4.25;;
62523;SDS011;53689;56.878;60.672;2022-08-19T12:17:07;10.33;;;5.10;;
62523;SDS011;53689;56.878;60.672;2022-08-19T12:19:36;11.27;;;5.38;;
62523;SDS011;53689;56.878;60.672;2022-08-19T12:22:04;8.90;;;5.00;;
62523;SDS011;53689;56.878;60.672;2022-08-19T12:24:31;8.13;;;4.10;;
62523;SDS011;53689;56.878;60.672;2022-08-19T12:26:59;7.50;;;4.10;;
62523;SDS011;53689;56.878;60.672;2022-08-19T12:31:57;8.23;;;4.72;;
62523;SDS011;53689;56.878;60.672;2022-08-19T12:34:25;8.45;;;4.60;;
62523;SDS011;53689;56.878;60.672;2022-08-19T12:36:53;10.63;;;4.47;;
62523;SDS011;53689;56.878;60.672;2022-08-19T12:39:20;7.68;;;4.00;;
62523;SDS011;53689;56.878;60.672;2022-08-19T12:41:47;6.95;;;3.90;;
62523;SDS011;53689;56.878;60.672;2022-08-19T12:44:20;8.55;;;4.10;;
62523;SDS011;53689;56.878;60.672;2022-08-19T12:46:54;7.82;;;4.13;;
62523;SDS011;53689;56.878;60.672;2022-08-19T12:49:23;8.40;;;4.00;;
62523;SDS011;53689;56.878;60.672;2022-08-19T12:52:11;10.15;;;4.50;;
62523;SDS011;53689;56.878;60.672;2022-08-19T12:54:39;7.10;;;4.00;;
62523;SDS011;53689;56.878;60.672;2022-08-19T12:57:07;8.63;;;4.13;;
62523;SDS011;53689;56.878;60.672;2022-08-19T12:59:35;7.00;;;4.10;;
62523;SDS011;53689;56.878;60.672;2022-08-19T13:02:03;9.15;;;4.10;;
62523;SDS011;53689;56.878;60.672;2022-08-19T13:04:33;8.68;;;4.03;;
62523;SDS011;53689;56.878;60.672;2022-08-19T13:07:01;8.85;;;4.03;;
62523;SDS011;53689;56.878;60.672;2022-08-19T13:09:28;8.13;;;4.45;;
62523;SDS011;53689;56.878;60.672;2022-08-19T13:11:56;6.57;;;4.07;;
62523;SDS011;53689;56.878;60.672;2022-08-19T13:14:23;10.77;;;4.03;;
62523;SDS011;53689;56.878;60.672;2022-08-19T13:16:52;11.13;;;4.40;;
62523;SDS011;53689;56.878;60.672;2022-08-19T13:19:20;8.32;;;4.10;;
62523;SDS011;53689;56.878;60.672;2022-08-19T13:21:50;8.68;;;4.25;;
62523;SDS011;53689;56.878;60.672;2022-08-19T13:24:26;5.45;;;3.63;;
62523;SDS011;53689;56.878;60.672;2022-08-19T13:26:59;6.82;;;4.38;;
62523;SDS011;53689;56.878;60.672;2022-08-19T13:29:27;6.90;;;4.28;;
62523;SDS011;53689;56.878;60.672;2022-08-19T13:31:54;7.75;;;4.40;;
62523;SDS011;53689;56.878;60.672;2022-08-19T13:34:26;9.27;;;5.30;;
62523;SDS011;53689;56.878;60.672;2022-08-19T13:36:58;7.57;;;4.80;;
62523;SDS011;53689;56.878;60.672;2022-08-19T13:41:53;7.75;;;4.57;;
62523;SDS011;53689;56.878;60.672;2022-08-19T13:44:21;8.45;;;4.63;;
62523;SDS011;53689;56.878;60.672;2022-08-19T13:46:48;6.38;;;4.07;;
62523;SDS011;53689;56.878;60.672;2022-08-19T13:49:19;12.05;;;5.07;;
62523;SDS011;53689;56.878;60.672;2022-08-19T13:51:47;15.90;;;5.80;;
62523;SDS011;53689;56.878;60.672;2022-08-19T13:54:16;11.65;;;6.25;;
62523;SDS011;53689;56.878;60.672;2022-08-19T13:56:44;13.83;;;6.37;;
62523;SDS011;53689;56.878;60.672;2022-08-19T13:59:12;23.63;;;7.82;;
62523;SDS011;53689;56.878;60.672;2022-08-19T14:01:40;19.58;;;7.07;;
62523;SDS011;53689;56.878;60.672;2022-08-19T14:04:08;20.92;;;6.47;;
62523;SDS011;53689;56.878;60.672;2022-08-19T14:06:35;18.52;;;6.38;;
62523;SDS011;53689;56.878;60.672;2022-08-19T14:09:03;20.75;;;6.57;;
62523;SDS011;53689;56.878;60.672;2022-08-19T14:11:32;21.83;;;6.45;;
62523;SDS011;53689;56.878;60.672;2022-08-19T14:13:59;15.43;;;6.80;;
62523;SDS011;53689;56.878;60.672;2022-08-19T14:16:27;22.75;;;8.75;;
62523;SDS011;53689;56.878;60.672;2022-08-19T14:18:54;14.38;;;7.63;;
62523;SDS011;53689;56.878;60.672;2022-08-19T14:21:22;14.45;;;7.20;;
62523;SDS011;53689;56.878;60.672;2022-08-19T14:23:50;14.70;;;6.90;;
62523;SDS011;53689;56.878;60.672;2022-08-19T14:26:19;12.40;;;6.50;;
62523;SDS011;53689;56.878;60.672;2022-08-19T14:28:49;14.17;;;7.57;;
62523;SDS011;53689;56.878;60.672;2022-08-19T14:31:17;11.27;;;6.30;;
62523;SDS011;53689;56.878;60.672;2022-08-19T14:33:46;9.85;;;6.45;;
62523;SDS011;53689;56.878;60.672;2022-08-19T14:36:14;10.85;;;6.55;;
62523;SDS011;53689;56.878;60.672;2022-08-19T14:38:41;8.43;;;5.55;;
62523;SDS011;53689;56.878;60.672;2022-08-19T14:41:11;13.02;;;6.90;;
62523;SDS011;53689;56.878;60.672;2022-08-19T14:43:40;12.70;;;6.30;;
62523;SDS011;53689;56.878;60.672;2022-08-19T14:46:09;11.13;;;6.07;;
62523;SDS011;53689;56.878;60.672;2022-08-19T14:48:37;12.53;;;5.90;;
62523;SDS011;53689;56.878;60.672;2022-08-19T14:51:07;7.20;;;4.15;;
62523;SDS011;53689;56.878;60.672;2022-08-19T14:53:34;9.25;;;4.60;;
62523;SDS011;53689;56.878;60.672;2022-08-19T14:56:06;10.90;;;5.80;;
62523;SDS011;53689;56.878;60.672;2022-08-19T14:58:34;8.10;;;4.90;;
62523;SDS011;53689;56.878;60.672;2022-08-19T15:01:04;8.07;;;4.45;;
62523;SDS011;53689;56.878;60.672;2022-08-19T15:03:33;10.18;;;5.05;;
62523;SDS011;53689;56.878;60.672;2022-08-19T15:06:02;9.75;;;5.25;;
62523;SDS011;53689;56.878;60.672;2022-08-19T15:08:31;8.82;;;4.70;;
62523;SDS011;53689;56.878;60.672;2022-08-19T15:10:59;9.23;;;5.03;;
62523;SDS011;53689;56.878;60.672;2022-08-19T15:13:28;7.95;;;5.38;;
62523;SDS011;53689;56.878;60.672;2022-08-19T15:15:56;9.40;;;4.93;;
62523;SDS011;53689;56.878;60.672;2022-08-19T15:18:23;9.85;;;5.10;;
62523;SDS011;53689;56.878;60.672;2022-08-19T15:20:52;6.95;;;4.40;;
62523;SDS011;53689;56.878;60.672;2022-08-19T15:23:20;6.80;;;4.72;;
62523;SDS011;53689;56.878;60.672;2022-08-19T15:25:48;7.60;;;4.15;;
62523;SDS011;53689;56.878;60.672;2022-08-19T15:28:16;7.35;;;4.53;;
62523;SDS011;53689;56.878;60.672;2022-08-19T15:30:43;6.70;;;3.88;;
62523;SDS011;53689;56.878;60.672;2022-08-19T15:33:11;6.75;;;3.92;;